Sarah Reed — WDC3151 — position and weather

sailwx.info

Track history (hours):
 
Tides and Currents Weather Stations Pressure Air Temp Water Temp Dewpoint Dewpoint Depression Visibility Wind Speed Wind Dir Waves Ship Positions

Sarah Reed

Owner: THE DUTRA GROUP, SAN RAFAEL, CA. More information available from US FCC via Universal Licensing System.

Last reported at 2018-Aug-14 07:01 UTC. Time now 2018-Aug-14 07:03 UTC.
Position N 38°04' W 122°26'.

Length 19 m; draft 3.3 m.

Type: Towing. MMSI: 367003250.

Date/timePositionNaut miles runAvg speedWind from/ knotsBaromVisibWave heightAir tempDewpointWater temp
2018-Aug-14 07:01N 38°04' W 122°26'3 4.6
2018-Aug-14 06:28N 38°01' W 122°26'1 1.5
2018-Aug-14 06:00N 38°01' W 122°26'1 2.1
2018-Aug-14 05:30N 37°60' W 122°26'2 3.5
2018-Aug-14 04:58N 37°58' W 122°26'2 4.1
2018-Aug-14 04:30N 37°56' W 122°26'2 3.7
2018-Aug-14 04:00N 37°54' W 122°25'2 3.6
2018-Aug-14 03:30N 37°53' W 122°24'2 4.4
2018-Aug-14 03:01N 37°51' W 122°23'3 5.4
2018-Aug-14 02:30N 37°48' W 122°21'2 4.7
2018-Aug-14 02:00N 37°46' W 122°20'0 0.6
2018-Aug-14 01:31N 37°46' W 122°20'3 6.3
2018-Aug-14 01:01N 37°49' W 122°21'1 1.6
2018-Aug-14 00:30N 37°49' W 122°21'3 5.6
2018-Aug-14 00:00N 37°46' W 122°20'1 3.0
2018-Aug-13 23:31N 37°47' W 122°21'3 6.5
2018-Aug-13 23:00N 37°50' W 122°22'3 6.7
2018-Aug-13 22:31N 37°53' W 122°24'2 4.1
2018-Aug-13 22:00N 37°54' W 122°22'0 0.0
2018-Aug-13 21:30N 37°54' W 122°22'0 0.0
2018-Aug-13 21:00N 37°54' W 122°22'0 0.0
2018-Aug-13 20:31N 37°54' W 122°22'0 0.0
2018-Aug-13 20:00N 37°54' W 122°22'0 0.0
2018-Aug-13 19:30N 37°54' W 122°22'0 0.0
2018-Aug-13 19:00N 37°54' W 122°22'0 0.0
2018-Aug-13 18:29N 37°54' W 122°22'0 0.0
2018-Aug-13 17:38N 37°54' W 122°22'0 0.0
2018-Aug-13 17:30N 37°54' W 122°22'1 1.0
2018-Aug-13 17:00N 37°54' W 122°23'2 4.7
2018-Aug-13 16:29N 37°52' W 122°24'3 6.7
2018-Aug-13 16:00N 37°50' W 122°21'1 2.4
2018-Aug-13 15:30N 37°49' W 122°21'3 5.1
2018-Aug-13 15:01N 37°46' W 122°20'0 0.5
2018-Aug-13 14:30N 37°47' W 122°20'3 6.4
2018-Aug-13 13:59N 37°50' W 122°21'0 0.0
2018-Aug-13 06:16N 37°50' W 122°21'1 2.0
2018-Aug-13 06:00N 37°49' W 122°21'2 3.3
2018-Aug-13 05:30N 37°48' W 122°21'2 3.0
2018-Aug-13 05:00N 37°46' W 122°22'0 0.1
2018-Aug-13 04:30N 37°46' W 122°22'0 0.1
2018-Aug-13 04:00N 37°46' W 122°21'0 0.3
2018-Aug-13 03:30N 37°46' W 122°21'2 3.5
2018-Aug-13 03:00N 37°46' W 122°19'2 3.6
2018-Aug-13 02:30N 37°46' W 122°21'0 0.3
2018-Aug-13 02:00N 37°46' W 122°22'0 0.0
2018-Aug-13 01:30N 37°46' W 122°22'0 0.0
2018-Aug-13 01:00N 37°46' W 122°22'2 3.0
2018-Aug-13 00:30N 37°46' W 122°20'2 3.0
2018-Aug-13 00:00N 37°46' W 122°22'0 0.1
2018-Aug-12 23:31N 37°46' W 122°22'0 0.1
2018-Aug-12 23:00N 37°46' W 122°22'0 0.1
2018-Aug-12 22:30N 37°46' W 122°21'1 2.4
2018-Aug-12 22:00N 37°46' W 122°20'1 2.6
2018-Aug-12 21:30N 37°46' W 122°22'0 0.0
2018-Aug-12 21:00N 37°46' W 122°22'0 0.0
2018-Aug-12 20:30N 37°46' W 122°22'0 0.1
2018-Aug-12 20:00N 37°46' W 122°21'2 3.2
2018-Aug-12 19:30N 37°46' W 122°20'0 0.1
2018-Aug-12 19:00N 37°46' W 122°20'0 0.0
2018-Aug-12 18:30N 37°46' W 122°20'0 0.0
2018-Aug-12 18:00N 37°46' W 122°20'0 0.0
2018-Aug-12 17:30N 37°46' W 122°20'0 0.0
2018-Aug-12 03:16N 37°46' W 122°20'0 0.0
2018-Aug-12 03:00N 37°46' W 122°20'0 0.1
2018-Aug-12 02:30N 37°46' W 122°20'0 0.0
2018-Aug-12 02:00N 37°46' W 122°20'0 0.1
2018-Aug-12 01:30N 37°46' W 122°20'0 0.0
2018-Aug-12 01:00N 37°46' W 122°20'0 0.0
2018-Aug-12 00:30N 37°46' W 122°20'0 0.1
2018-Aug-12 00:00N 37°46' W 122°20'0 0.0
2018-Aug-11 23:30N 37°46' W 122°20'0 0.0
2018-Aug-11 23:00N 37°46' W 122°20'0 0.0
2018-Aug-11 22:30N 37°46' W 122°20'0 0.0
2018-Aug-11 22:00N 37°46' W 122°20'0 0.0
2018-Aug-11 21:30N 37°46' W 122°20'0 0.1
2018-Aug-11 21:00N 37°46' W 122°20'0 0.1
2018-Aug-11 20:30N 37°46' W 122°20'0 0.0
2018-Aug-11 20:01N 37°46' W 122°20'0 0.0
2018-Aug-11 19:30N 37°46' W 122°20'0 0.1
2018-Aug-11 19:00N 37°46' W 122°20'0 0.0
2018-Aug-11 18:30N 37°46' W 122°20'0 0.0
2018-Aug-11 18:00N 37°46' W 122°20'0 0.0
2018-Aug-11 17:30N 37°46' W 122°20'2 5.0
2018-Aug-11 17:00N 37°48' W 122°21'2 0.1
2018-Aug-11 06:24N 37°50' W 122°21'1 3.7
2018-Aug-11 06:00N 37°49' W 122°21'2 3.5
2018-Aug-11 05:30N 37°49' W 122°19'0 0.0
2018-Aug-11 05:00N 37°49' W 122°19'0 0.0
2018-Aug-11 04:30N 37°49' W 122°19'0 0.5
2018-Aug-11 04:00N 37°49' W 122°19'3 5.1
2018-Aug-11 03:30N 37°47' W 122°20'1 1.1
2018-Aug-11 03:00N 37°46' W 122°20'3 6.5
2018-Aug-11 02:30N 37°49' W 122°21'1 2.5
2018-Aug-11 02:00N 37°48' W 122°21'2 4.8
2018-Aug-11 01:30N 37°46' W 122°19'2 4.1
2018-Aug-11 01:00N 37°48' W 122°21'2 3.9
2018-Aug-11 00:30N 37°50' W 122°21'1 2.3
2018-Aug-11 00:00N 37°51' W 122°22'3 5.8
2018-Aug-10 23:30N 37°53' W 122°24'4 7.8
2018-Aug-10 22:59N 37°57' W 122°26'4 7.4
2018-Aug-10 22:30N 38°00' W 122°26'3 6.9
2018-Aug-10 22:00N 38°04' W 122°26'3 6.2
2018-Aug-10 21:30N 38°06' W 122°27'3 5.1
2018-Aug-10 21:00N 38°07' W 122°31'3 5.3
2018-Aug-10 20:30N 38°09' W 122°32'1 2.2
2018-Aug-10 20:00N 38°10' W 122°32'2 4.0
2018-Aug-10 19:30N 38°12' W 122°34'2 4.4
2018-Aug-10 19:00N 38°13' W 122°36'1 1.0
2018-Aug-10 18:30N 38°13' W 122°36'0 0.0
2018-Aug-10 18:00N 38°13' W 122°36'0 0.0
2018-Aug-10 06:35N 38°13' W 122°36'0 0.1
2018-Aug-10 06:31N 38°13' W 122°36'1 1.5
2018-Aug-10 06:00N 38°13' W 122°36'2 4.1
2018-Aug-10 05:30N 38°12' W 122°33'2 4.2
2018-Aug-10 05:00N 38°10' W 122°32'2 4.0
2018-Aug-10 04:30N 38°08' W 122°31'2 4.2
2018-Aug-10 04:00N 38°07' W 122°29'2 5.0
2018-Aug-10 03:30N 38°05' W 122°27'3 5.3
2018-Aug-10 03:00N 38°03' W 122°26'3 6.2
2018-Aug-10 02:30N 37°60' W 122°26'3 6.3
2018-Aug-10 02:00N 37°57' W 122°26'3 5.9
2018-Aug-10 01:31N 37°54' W 122°25'3 5.1
2018-Aug-10 01:00N 37°52' W 122°23'2 4.5
2018-Aug-10 00:31N 37°50' W 122°21'0 0.4
2018-Aug-10 00:00N 37°50' W 122°21'0 0.0
2018-Aug-09 23:30N 37°50' W 122°21'0 0.3
2018-Aug-09 23:00N 37°50' W 122°21'3 5.5
2018-Aug-09 22:30N 37°52' W 122°24'4 7.1
2018-Aug-09 22:00N 37°55' W 122°25'4 7.6
2018-Aug-09 21:31N 37°59' W 122°26'3 6.9
2018-Aug-09 21:01N 38°02' W 122°26'5 6.0
2018-Aug-09 20:12N 38°07' W 122°28'1 6.1
2018-Aug-09 20:00N 38°07' W 122°30'2 4.6
2018-Aug-09 19:30N 38°09' W 122°31'2 4.0
2018-Aug-09 19:00N 38°11' W 122°32'2 4.2
2018-Aug-09 18:30N 38°12' W 122°34'2 4.3
2018-Aug-09 18:01N 38°13' W 122°36'0 0.4
2018-Aug-09 17:31N 38°13' W 122°36'0 0.0
2018-Aug-09 06:18N 38°13' W 122°36'0 0.3
2018-Aug-09 06:00N 38°13' W 122°36'1 2.6
2018-Aug-09 05:30N 38°13' W 122°35'2 3.5
2018-Aug-09 05:00N 38°12' W 122°33'2 4.0
2018-Aug-09 04:30N 38°10' W 122°32'2 3.9
2018-Aug-09 04:00N 38°08' W 122°31'2 4.1
2018-Aug-09 03:30N 38°07' W 122°29'2 4.3
2018-Aug-09 02:58N 38°06' W 122°27'2 4.6
2018-Aug-09 02:30N 38°04' W 122°26'3 5.5
2018-Aug-09 02:00N 38°01' W 122°26'3 5.8
2018-Aug-09 01:30N 37°58' W 122°26'3 5.8
2018-Aug-09 01:00N 37°55' W 122°25'3 5.0
2018-Aug-09 00:30N 37°53' W 122°24'2 4.2
2018-Aug-09 00:00N 37°51' W 122°23'2 3.5
2018-Aug-08 23:30N 37°50' W 122°21'0 0.0
2018-Aug-08 23:00N 37°50' W 122°21'0 0.2
2018-Aug-08 22:30N 37°50' W 122°21'3 5.1
2018-Aug-08 22:00N 37°52' W 122°23'3 6.6
2018-Aug-08 21:30N 37°55' W 122°25'4 7.4
2018-Aug-08 21:00N 37°58' W 122°26'4 6.9
2018-Aug-08 20:30N 38°02' W 122°26'3 6.3
2018-Aug-08 19:59N 38°05' W 122°26'3 5.8
2018-Aug-08 19:29N 38°07' W 122°29'2 4.9
2018-Aug-08 18:59N 38°09' W 122°31'2 4.1
2018-Aug-08 18:30N 38°10' W 122°32'2 4.3
2018-Aug-08 18:00N 38°12' W 122°34'2 4.4
2018-Aug-08 17:30N 38°13' W 122°36'0 0.3
2018-Aug-08 17:00N 38°13' W 122°36'0 0.0
2018-Aug-08 16:30N 38°13' W 122°36'0 0.0
2018-Aug-08 16:00N 38°13' W 122°36'0 0.0
2018-Aug-08 15:30N 38°13' W 122°36'0 0.0
2018-Aug-08 15:00N 38°13' W 122°36'0 0.0
2018-Aug-08 05:24N 38°13' W 122°36'0 0.7
2018-Aug-08 05:00N 38°13' W 122°36'1 2.6
2018-Aug-08 04:30N 38°12' W 122°35'2 3.4
2018-Aug-08 04:00N 38°12' W 122°33'2 3.7
2018-Aug-08 03:30N 38°10' W 122°32'2 4.4
2018-Aug-08 03:00N 38°08' W 122°31'2 4.0
2018-Aug-08 02:30N 38°07' W 122°29'2 4.3
2018-Aug-08 02:00N 38°06' W 122°27'2 4.5
2018-Aug-08 01:30N 38°03' W 122°26'3 5.2
2018-Aug-08 01:00N 38°01' W 122°26'3 5.9
2018-Aug-08 00:30N 37°58' W 122°27'2 4.9
2018-Aug-08 00:00N 37°55' W 122°26'3 5.1
2018-Aug-07 23:30N 37°53' W 122°24'2 4.7
2018-Aug-07 23:00N 37°51' W 122°23'2 4.3
2018-Aug-07 22:30N 37°50' W 122°21'0 0.3
2018-Aug-07 22:00N 37°50' W 122°21'0 0.3
2018-Aug-07 21:30N 37°50' W 122°21'2 4.5
2018-Aug-07 21:00N 37°51' W 122°23'3 6.2
2018-Aug-07 20:30N 37°54' W 122°25'4 7.3
2018-Aug-07 20:00N 37°58' W 122°26'3 6.9
2018-Aug-07 19:30N 38°01' W 122°26'4 6.4
2018-Aug-07 18:58N 38°05' W 122°26'3 6.0
2018-Aug-07 18:30N 38°07' W 122°28'2 5.0
2018-Aug-07 18:00N 38°08' W 122°31'2 4.4
2018-Aug-07 17:30N 38°10' W 122°32'2 4.4
2018-Aug-07 17:00N 38°12' W 122°34'2 4.9
2018-Aug-07 16:30N 38°13' W 122°36'0 0.4
2018-Aug-07 16:00N 38°13' W 122°36'0 0.0
2018-Aug-07 15:30N 38°13' W 122°36'0 0.0
2018-Aug-07 15:00N 38°13' W 122°36'0 0.0
2018-Aug-07 14:30N 38°13' W 122°36'0 0.0
2018-Aug-07 14:00N 38°13' W 122°36'0 0.0
2018-Aug-07 04:00N 38°13' W 122°36'1 1.0
2018-Aug-07 03:30N 38°13' W 122°36'2 3.4
2018-Aug-07 03:00N 38°12' W 122°34'2 3.2
2018-Aug-07 02:29N 38°11' W 122°33'2 3.5
2018-Aug-07 02:00N 38°09' W 122°32'3 5.0
2018-Aug-07 01:30N 38°07' W 122°31'2 4.0
2018-Aug-07 00:59N 38°07' W 122°28'2 4.6
2018-Aug-07 00:30N 38°05' W 122°26'2 4.7
2018-Aug-06 23:59N 38°03' W 122°26'3 5.4
2018-Aug-06 23:30N 38°00' W 122°26'3 5.6
2018-Aug-06 23:00N 37°57' W 122°26'3 5.5
2018-Aug-06 22:29N 37°54' W 122°25'2 4.6
2018-Aug-06 22:00N 37°52' W 122°24'2 4.4
2018-Aug-06 21:30N 37°51' W 122°22'1 2.6
2018-Aug-06 21:00N 37°50' W 122°21'4 7.1
2018-Aug-06 20:30N 37°53' W 122°24'2 4.4
2018-Aug-06 20:00N 37°54' W 122°22'0 0.0
2018-Aug-06 19:30N 37°54' W 122°22'0 0.0
2018-Aug-06 19:00N 37°54' W 122°22'0 0.0
2018-Aug-06 18:30N 37°54' W 122°22'0 0.0
2018-Aug-06 18:00N 37°54' W 122°22'0 0.0
2018-Aug-06 17:30N 37°54' W 122°22'0 0.0
2018-Aug-06 17:00N 37°54' W 122°22'0 0.0
2018-Aug-06 16:30N 37°54' W 122°22'0 0.0
2018-Aug-06 16:00N 37°54' W 122°22'0 0.0
2018-Aug-06 15:30N 37°54' W 122°22'0 0.0
2018-Aug-06 15:00N 37°54' W 122°22'0 0.0
2018-Aug-06 14:30N 37°54' W 122°22'0 0.0
2018-Aug-06 14:00N 37°54' W 122°22'0 0.0
2018-Aug-06 13:30N 37°54' W 122°22'0 0.0
2018-Aug-06 13:00N 37°54' W 122°22'0 0.0
2018-Aug-06 12:30N 37°54' W 122°22'0 0.0
2018-Aug-06 12:00N 37°54' W 122°22'0 0.0
2018-Aug-06 11:30N 37°54' W 122°22'0 0.0
2018-Aug-06 11:00N 37°54' W 122°22'0 0.0
2018-Aug-06 10:30N 37°54' W 122°22'0 0.0
2018-Aug-06 10:00N 37°54' W 122°22'0 0.0
2018-Aug-06 09:30N 37°54' W 122°22'0 0.0
2018-Aug-06 09:00N 37°54' W 122°22'0 0.0
2018-Aug-06 08:30N 37°54' W 122°22'0 0.0
2018-Aug-06 08:00N 37°54' W 122°22'0 0.0
2018-Aug-06 07:30N 37°54' W 122°22'0 0.0
2018-Aug-06 07:00N 37°54' W 122°22'0 0.0
2018-Aug-06 06:30N 37°54' W 122°22'0 0.0
2018-Aug-06 06:00N 37°54' W 122°22'0 0.0
2018-Aug-06 05:30N 37°54' W 122°22'0 0.0
2018-Aug-06 05:00N 37°54' W 122°22'0 0.0
2018-Aug-06 04:30N 37°54' W 122°22'0 0.0
2018-Aug-06 04:00N 37°54' W 122°22'0 0.1
2018-Aug-06 03:30N 37°54' W 122°22'3 6.1
2018-Aug-06 03:00N 37°56' W 122°25'3 6.5
2018-Aug-06 02:30N 37°59' W 122°25'4 6.5
2018-Aug-06 01:58N 38°01' W 122°22'3 6.1
2018-Aug-06 01:30N 38°03' W 122°19'3 5.9
2018-Aug-06 01:00N 38°04' W 122°15'3 6.2
2018-Aug-06 00:30N 38°03' W 122°12'8 6.6
2018-Aug-05 23:22N 38°04' W 122°02'3 6.9
2018-Aug-05 22:56N 38°04' W 121°58'4 0.2
2018-Aug-04 23:21N 38°03' W 121°53'  
Track history (hours):
 
Tides and Currents Weather Stations Pressure Air Temp Water Temp Dewpoint Dewpoint Depression Visibility Wind Speed Wind Dir Waves Ship Positions

Sarah Reed

Owner: THE DUTRA GROUP, SAN RAFAEL, CA. More information available from US FCC via Universal Licensing System.

Last reported at 2018-Aug-14 07:01 UTC. Time now 2018-Aug-14 07:03 UTC.
Position N 38°04' W 122°26'.

Length 19 m; draft 3.3 m.

Type: Towing. MMSI: 367003250.

Date/timePositionNaut miles runAvg speedWind from/ knotsBaromVisibWave heightAir tempDewpointWater temp
2018-Aug-14 07:01N 38°04' W 122°26'3 4.6
2018-Aug-14 06:28N 38°01' W 122°26'1 1.5
2018-Aug-14 06:00N 38°01' W 122°26'1 2.1
2018-Aug-14 05:30N 37°60' W 122°26'2 3.5
2018-Aug-14 04:58N 37°58' W 122°26'2 4.1
2018-Aug-14 04:30N 37°56' W 122°26'2 3.7
2018-Aug-14 04:00N 37°54' W 122°25'2 3.6
2018-Aug-14 03:30N 37°53' W 122°24'2 4.4
2018-Aug-14 03:01N 37°51' W 122°23'3 5.4
2018-Aug-14 02:30N 37°48' W 122°21'2 4.7
2018-Aug-14 02:00N 37°46' W 122°20'0 0.6
2018-Aug-14 01:31N 37°46' W 122°20'3 6.3
2018-Aug-14 01:01N 37°49' W 122°21'1 1.6
2018-Aug-14 00:30N 37°49' W 122°21'3 5.6
2018-Aug-14 00:00N 37°46' W 122°20'1 3.0
2018-Aug-13 23:31N 37°47' W 122°21'3 6.5
2018-Aug-13 23:00N 37°50' W 122°22'3 6.7
2018-Aug-13 22:31N 37°53' W 122°24'2 4.1
2018-Aug-13 22:00N 37°54' W 122°22'0 0.0
2018-Aug-13 21:30N 37°54' W 122°22'0 0.0
2018-Aug-13 21:00N 37°54' W 122°22'0 0.0
2018-Aug-13 20:31N 37°54' W 122°22'0 0.0
2018-Aug-13 20:00N 37°54' W 122°22'0 0.0
2018-Aug-13 19:30N 37°54' W 122°22'0 0.0
2018-Aug-13 19:00N 37°54' W 122°22'0 0.0
2018-Aug-13 18:29N 37°54' W 122°22'0 0.0
2018-Aug-13 17:38N 37°54' W 122°22'0 0.0
2018-Aug-13 17:30N 37°54' W 122°22'1 1.0
2018-Aug-13 17:00N 37°54' W 122°23'2 4.7
2018-Aug-13 16:29N 37°52' W 122°24'3 6.7
2018-Aug-13 16:00N 37°50' W 122°21'1 2.4
2018-Aug-13 15:30N 37°49' W 122°21'3 5.1
2018-Aug-13 15:01N 37°46' W 122°20'0 0.5
2018-Aug-13 14:30N 37°47' W 122°20'3 6.4
2018-Aug-13 13:59N 37°50' W 122°21'0 0.0
2018-Aug-13 06:16N 37°50' W 122°21'1 2.0
2018-Aug-13 06:00N 37°49' W 122°21'2 3.3
2018-Aug-13 05:30N 37°48' W 122°21'2 3.0
2018-Aug-13 05:00N 37°46' W 122°22'0 0.1
2018-Aug-13 04:30N 37°46' W 122°22'0 0.1
2018-Aug-13 04:00N 37°46' W 122°21'0 0.3
2018-Aug-13 03:30N 37°46' W 122°21'2 3.5
2018-Aug-13 03:00N 37°46' W 122°19'2 3.6
2018-Aug-13 02:30N 37°46' W 122°21'0 0.3
2018-Aug-13 02:00N 37°46' W 122°22'0 0.0
2018-Aug-13 01:30N 37°46' W 122°22'0 0.0
2018-Aug-13 01:00N 37°46' W 122°22'2 3.0
2018-Aug-13 00:30N 37°46' W 122°20'2 3.0
2018-Aug-13 00:00N 37°46' W 122°22'0 0.1
2018-Aug-12 23:31N 37°46' W 122°22'0 0.1
2018-Aug-12 23:00N 37°46' W 122°22'0 0.1
2018-Aug-12 22:30N 37°46' W 122°21'1 2.4
2018-Aug-12 22:00N 37°46' W 122°20'1 2.6
2018-Aug-12 21:30N 37°46' W 122°22'0 0.0
2018-Aug-12 21:00N 37°46' W 122°22'0 0.0
2018-Aug-12 20:30N 37°46' W 122°22'0 0.1
2018-Aug-12 20:00N 37°46' W 122°21'2 3.2
2018-Aug-12 19:30N 37°46' W 122°20'0 0.1
2018-Aug-12 19:00N 37°46' W 122°20'0 0.0
2018-Aug-12 18:30N 37°46' W 122°20'0 0.0
2018-Aug-12 18:00N 37°46' W 122°20'0 0.0
2018-Aug-12 17:30N 37°46' W 122°20'0 0.0
2018-Aug-12 03:16N 37°46' W 122°20'0 0.0
2018-Aug-12 03:00N 37°46' W 122°20'0 0.1
2018-Aug-12 02:30N 37°46' W 122°20'0 0.0
2018-Aug-12 02:00N 37°46' W 122°20'0 0.1
2018-Aug-12 01:30N 37°46' W 122°20'0 0.0
2018-Aug-12 01:00N 37°46' W 122°20'0 0.0
2018-Aug-12 00:30N 37°46' W 122°20'0 0.1
2018-Aug-12 00:00N 37°46' W 122°20'0 0.0
2018-Aug-11 23:30N 37°46' W 122°20'0 0.0
2018-Aug-11 23:00N 37°46' W 122°20'0 0.0
2018-Aug-11 22:30N 37°46' W 122°20'0 0.0
2018-Aug-11 22:00N 37°46' W 122°20'0 0.0
2018-Aug-11 21:30N 37°46' W 122°20'0 0.1
2018-Aug-11 21:00N 37°46' W 122°20'0 0.1
2018-Aug-11 20:30N 37°46' W 122°20'0 0.0
2018-Aug-11 20:01N 37°46' W 122°20'0 0.0
2018-Aug-11 19:30N 37°46' W 122°20'0 0.1
2018-Aug-11 19:00N 37°46' W 122°20'0 0.0
2018-Aug-11 18:30N 37°46' W 122°20'0 0.0
2018-Aug-11 18:00N 37°46' W 122°20'0 0.0
2018-Aug-11 17:30N 37°46' W 122°20'2 5.0
2018-Aug-11 17:00N 37°48' W 122°21'2 0.1
2018-Aug-11 06:24N 37°50' W 122°21'1 3.7
2018-Aug-11 06:00N 37°49' W 122°21'2 3.5
2018-Aug-11 05:30N 37°49' W 122°19'0 0.0
2018-Aug-11 05:00N 37°49' W 122°19'0 0.0
2018-Aug-11 04:30N 37°49' W 122°19'0 0.5
2018-Aug-11 04:00N 37°49' W 122°19'3 5.1
2018-Aug-11 03:30N 37°47' W 122°20'1 1.1
2018-Aug-11 03:00N 37°46' W 122°20'3 6.5
2018-Aug-11 02:30N 37°49' W 122°21'1 2.5
2018-Aug-11 02:00N 37°48' W 122°21'2 4.8
2018-Aug-11 01:30N 37°46' W 122°19'2 4.1
2018-Aug-11 01:00N 37°48' W 122°21'2 3.9
2018-Aug-11 00:30N 37°50' W 122°21'1 2.3
2018-Aug-11 00:00N 37°51' W 122°22'3 5.8
2018-Aug-10 23:30N 37°53' W 122°24'4 7.8
2018-Aug-10 22:59N 37°57' W 122°26'4 7.4
2018-Aug-10 22:30N 38°00' W 122°26'3 6.9
2018-Aug-10 22:00N 38°04' W 122°26'3 6.2
2018-Aug-10 21:30N 38°06' W 122°27'3 5.1
2018-Aug-10 21:00N 38°07' W 122°31'3 5.3
2018-Aug-10 20:30N 38°09' W 122°32'1 2.2
2018-Aug-10 20:00N 38°10' W 122°32'2 4.0
2018-Aug-10 19:30N 38°12' W 122°34'2 4.4
2018-Aug-10 19:00N 38°13' W 122°36'1 1.0
2018-Aug-10 18:30N 38°13' W 122°36'0 0.0
2018-Aug-10 18:00N 38°13' W 122°36'0 0.0
2018-Aug-10 06:35N 38°13' W 122°36'0 0.1
2018-Aug-10 06:31N 38°13' W 122°36'1 1.5
2018-Aug-10 06:00N 38°13' W 122°36'2 4.1
2018-Aug-10 05:30N 38°12' W 122°33'2 4.2
2018-Aug-10 05:00N 38°10' W 122°32'2 4.0
2018-Aug-10 04:30N 38°08' W 122°31'2 4.2
2018-Aug-10 04:00N 38°07' W 122°29'2 5.0
2018-Aug-10 03:30N 38°05' W 122°27'3 5.3
2018-Aug-10 03:00N 38°03' W 122°26'3 6.2
2018-Aug-10 02:30N 37°60' W 122°26'3 6.3
2018-Aug-10 02:00N 37°57' W 122°26'3 5.9
2018-Aug-10 01:31N 37°54' W 122°25'3 5.1
2018-Aug-10 01:00N 37°52' W 122°23'2 4.5
2018-Aug-10 00:31N 37°50' W 122°21'0 0.4
2018-Aug-10 00:00N 37°50' W 122°21'0 0.0
2018-Aug-09 23:30N 37°50' W 122°21'0 0.3
2018-Aug-09 23:00N 37°50' W 122°21'3 5.5
2018-Aug-09 22:30N 37°52' W 122°24'4 7.1
2018-Aug-09 22:00N 37°55' W 122°25'4 7.6
2018-Aug-09 21:31N 37°59' W 122°26'3 6.9
2018-Aug-09 21:01N 38°02' W 122°26'5 6.0
2018-Aug-09 20:12N 38°07' W 122°28'1 6.1
2018-Aug-09 20:00N 38°07' W 122°30'2 4.6
2018-Aug-09 19:30N 38°09' W 122°31'2 4.0
2018-Aug-09 19:00N 38°11' W 122°32'2 4.2
2018-Aug-09 18:30N 38°12' W 122°34'2 4.3
2018-Aug-09 18:01N 38°13' W 122°36'0 0.4
2018-Aug-09 17:31N 38°13' W 122°36'0 0.0
2018-Aug-09 06:18N 38°13' W 122°36'0 0.3
2018-Aug-09 06:00N 38°13' W 122°36'1 2.6
2018-Aug-09 05:30N 38°13' W 122°35'2 3.5
2018-Aug-09 05:00N 38°12' W 122°33'2 4.0
2018-Aug-09 04:30N 38°10' W 122°32'2 3.9
2018-Aug-09 04:00N 38°08' W 122°31'2 4.1
2018-Aug-09 03:30N 38°07' W 122°29'2 4.3
2018-Aug-09 02:58N 38°06' W 122°27'2 4.6
2018-Aug-09 02:30N 38°04' W 122°26'3 5.5
2018-Aug-09 02:00N 38°01' W 122°26'3 5.8
2018-Aug-09 01:30N 37°58' W 122°26'3 5.8
2018-Aug-09 01:00N 37°55' W 122°25'3 5.0
2018-Aug-09 00:30N 37°53' W 122°24'2 4.2
2018-Aug-09 00:00N 37°51' W 122°23'2 3.5
2018-Aug-08 23:30N 37°50' W 122°21'0 0.0
2018-Aug-08 23:00N 37°50' W 122°21'0 0.2
2018-Aug-08 22:30N 37°50' W 122°21'3 5.1
2018-Aug-08 22:00N 37°52' W 122°23'3 6.6
2018-Aug-08 21:30N 37°55' W 122°25'4 7.4
2018-Aug-08 21:00N 37°58' W 122°26'4 6.9
2018-Aug-08 20:30N 38°02' W 122°26'3 6.3
2018-Aug-08 19:59N 38°05' W 122°26'3 5.8
2018-Aug-08 19:29N 38°07' W 122°29'2 4.9
2018-Aug-08 18:59N 38°09' W 122°31'2 4.1
2018-Aug-08 18:30N 38°10' W 122°32'2 4.3
2018-Aug-08 18:00N 38°12' W 122°34'2 4.4
2018-Aug-08 17:30N 38°13' W 122°36'0 0.3
2018-Aug-08 17:00N 38°13' W 122°36'0 0.0
2018-Aug-08 16:30N 38°13' W 122°36'0 0.0
2018-Aug-08 16:00N 38°13' W 122°36'0 0.0
2018-Aug-08 15:30N 38°13' W 122°36'0 0.0
2018-Aug-08 15:00N 38°13' W 122°36'0 0.0
2018-Aug-08 05:24N 38°13' W 122°36'0 0.7
2018-Aug-08 05:00N 38°13' W 122°36'1 2.6
2018-Aug-08 04:30N 38°12' W 122°35'2 3.4
2018-Aug-08 04:00N 38°12' W 122°33'2 3.7
2018-Aug-08 03:30N 38°10' W 122°32'2 4.4
2018-Aug-08 03:00N 38°08' W 122°31'2 4.0
2018-Aug-08 02:30N 38°07' W 122°29'2 4.3
2018-Aug-08 02:00N 38°06' W 122°27'2 4.5
2018-Aug-08 01:30N 38°03' W 122°26'3 5.2
2018-Aug-08 01:00N 38°01' W 122°26'3 5.9
2018-Aug-08 00:30N 37°58' W 122°27'2 4.9
2018-Aug-08 00:00N 37°55' W 122°26'3 5.1
2018-Aug-07 23:30N 37°53' W 122°24'2 4.7
2018-Aug-07 23:00N 37°51' W 122°23'2 4.3
2018-Aug-07 22:30N 37°50' W 122°21'0 0.3
2018-Aug-07 22:00N 37°50' W 122°21'0 0.3
2018-Aug-07 21:30N 37°50' W 122°21'2 4.5
2018-Aug-07 21:00N 37°51' W 122°23'3 6.2
2018-Aug-07 20:30N 37°54' W 122°25'4 7.3
2018-Aug-07 20:00N 37°58' W 122°26'3 6.9
2018-Aug-07 19:30N 38°01' W 122°26'4 6.4
2018-Aug-07 18:58N 38°05' W 122°26'3 6.0
2018-Aug-07 18:30N 38°07' W 122°28'2 5.0
2018-Aug-07 18:00N 38°08' W 122°31'2 4.4
2018-Aug-07 17:30N 38°10' W 122°32'2 4.4
2018-Aug-07 17:00N 38°12' W 122°34'2 4.9
2018-Aug-07 16:30N 38°13' W 122°36'0 0.4
2018-Aug-07 16:00N 38°13' W 122°36'0 0.0
2018-Aug-07 15:30N 38°13' W 122°36'0 0.0
2018-Aug-07 15:00N 38°13' W 122°36'0 0.0
2018-Aug-07 14:30N 38°13' W 122°36'0 0.0
2018-Aug-07 14:00N 38°13' W 122°36'0 0.0
2018-Aug-07 04:00N 38°13' W 122°36'1 1.0
2018-Aug-07 03:30N 38°13' W 122°36'2 3.4
2018-Aug-07 03:00N 38°12' W 122°34'2 3.2
2018-Aug-07 02:29N 38°11' W 122°33'2 3.5
2018-Aug-07 02:00N 38°09' W 122°32'3 5.0
2018-Aug-07 01:30N 38°07' W 122°31'2 4.0
2018-Aug-07 00:59N 38°07' W 122°28'2 4.6
2018-Aug-07 00:30N 38°05' W 122°26'2 4.7
2018-Aug-06 23:59N 38°03' W 122°26'3 5.4
2018-Aug-06 23:30N 38°00' W 122°26'3 5.6
2018-Aug-06 23:00N 37°57' W 122°26'3 5.5
2018-Aug-06 22:29N 37°54' W 122°25'2 4.6
2018-Aug-06 22:00N 37°52' W 122°24'2 4.4
2018-Aug-06 21:30N 37°51' W 122°22'1 2.6
2018-Aug-06 21:00N 37°50' W 122°21'4 7.1
2018-Aug-06 20:30N 37°53' W 122°24'2 4.4
2018-Aug-06 20:00N 37°54' W 122°22'0 0.0
2018-Aug-06 19:30N 37°54' W 122°22'0 0.0
2018-Aug-06 19:00N 37°54' W 122°22'0 0.0
2018-Aug-06 18:30N 37°54' W 122°22'0 0.0
2018-Aug-06 18:00N 37°54' W 122°22'0 0.0
2018-Aug-06 17:30N 37°54' W 122°22'0 0.0
2018-Aug-06 17:00N 37°54' W 122°22'0 0.0
2018-Aug-06 16:30N 37°54' W 122°22'0 0.0
2018-Aug-06 16:00N 37°54' W 122°22'0 0.0
2018-Aug-06 15:30N 37°54' W 122°22'0 0.0
2018-Aug-06 15:00N 37°54' W 122°22'0 0.0
2018-Aug-06 14:30N 37°54' W 122°22'0 0.0
2018-Aug-06 14:00N 37°54' W 122°22'0 0.0
2018-Aug-06 13:30N 37°54' W 122°22'0 0.0
2018-Aug-06 13:00N 37°54' W 122°22'0 0.0
2018-Aug-06 12:30N 37°54' W 122°22'0 0.0
2018-Aug-06 12:00N 37°54' W 122°22'0 0.0
2018-Aug-06 11:30N 37°54' W 122°22'0 0.0
2018-Aug-06 11:00N 37°54' W 122°22'0 0.0
2018-Aug-06 10:30N 37°54' W 122°22'0 0.0
2018-Aug-06 10:00N 37°54' W 122°22'0 0.0
2018-Aug-06 09:30N 37°54' W 122°22'0 0.0
2018-Aug-06 09:00N 37°54' W 122°22'0 0.0
2018-Aug-06 08:30N 37°54' W 122°22'0 0.0
2018-Aug-06 08:00N 37°54' W 122°22'0 0.0
2018-Aug-06 07:30N 37°54' W 122°22'0 0.0
2018-Aug-06 07:00N 37°54' W 122°22'0 0.0
2018-Aug-06 06:30N 37°54' W 122°22'0 0.0
2018-Aug-06 06:00N 37°54' W 122°22'0 0.0
2018-Aug-06 05:30N 37°54' W 122°22'0 0.0
2018-Aug-06 05:00N 37°54' W 122°22'0 0.0
2018-Aug-06 04:30N 37°54' W 122°22'0 0.0
2018-Aug-06 04:00N 37°54' W 122°22'0 0.1
2018-Aug-06 03:30N 37°54' W 122°22'3 6.1
2018-Aug-06 03:00N 37°56' W 122°25'3 6.5
2018-Aug-06 02:30N 37°59' W 122°25'4 6.5
2018-Aug-06 01:58N 38°01' W 122°22'3 6.1
2018-Aug-06 01:30N 38°03' W 122°19'3 5.9
2018-Aug-06 01:00N 38°04' W 122°15'3 6.2
2018-Aug-06 00:30N 38°03' W 122°12'8 6.6
2018-Aug-05 23:22N 38°04' W 122°02'3 6.9
2018-Aug-05 22:56N 38°04' W 121°58'4 0.2
2018-Aug-04 23:21N 38°03' W 121°53'  

Dump ship's entire track history